Flight Track Log - Related Links

Times and Time Zones

All times are in EDT time to prevent confusion due to time zone crossing. See the SWA472 flight status page for this flight to view local times or setup timezone preferences in your user account.

Time Position Orientation Groundspeed Altitude Reporting Facility
EDT Latitude Longitude Course Direction KTS MPH feet Rate Location/Type
Fri 09:16:40 AM 34.0500 -117.5833 268° West 179 206 2,500  Level Southern California TRACON
Fri 09:19:01 AM 34.0469 -117.7006 268° West 277 319 7,100 1,634 Climbing Los Angeles Center
Fri 09:20:02 AM 34.0817 -117.7886 295° West 290 334 8,000 1,623 Climbing Los Angeles Center
Fri 09:21:03 AM 34.1342 -117.8656 310° West 301 346 10,400 2,754 Climbing Los Angeles Center
Fri 09:22:04 AM 34.1908 -117.9461 310° West 315 362 13,600 3,246 Climbing Los Angeles Center
Fri 09:23:05 AM 34.2517 -118.0381 309° West 344 396 17,000 3,492 Climbing Los Angeles Center
Fri 09:24:06 AM 34.3147 -118.1325 309° West 357 411 20,700 3,148 Climbing Los Angeles Center
Fri 09:25:07 AM 34.3681 -118.2114 309° West 371 427 23,400 3,098 Climbing Los Angeles Center
Fri 09:26:08 AM 34.4508 -118.3331 310° West 388 447 27,000 3,024 Climbing Los Angeles Center
Fri 09:27:10 AM 34.5303 -118.4311 315° West 407 468 29,600 2,683 Climbing Los Angeles Center
Fri 09:28:11 AM 34.6567 -118.5042 335° Northwest 422 486 32,500 2,557 Climbing Los Angeles Center
Fri 09:29:12 AM 34.7619 -118.5650 335° Northwest 420 483 34,800 2,066 Climbing Los Angeles Center
Fri 09:30:13 AM 34.8683 -118.6258 335° Northwest 423 487 36,700 1,770 Climbing Los Angeles Center
Fri 09:31:14 AM 34.9650 -118.6794 336° Northwest 426 490 38,400 1,610 Climbing Los Angeles Center
Fri 09:32:16 AM 35.0703 -118.7414 334° Northwest 422 486 40,000 780 Climbing Los Angeles Center
Fri 09:33:17 AM 35.1989 -118.8153 335° Northwest 427 491 40,000  Level Los Angeles Center
Fri 09:34:18 AM 35.3058 -118.8769 335° Northwest 428 493 40,000  Level Los Angeles Center
Fri 09:35:19 AM 35.4114 -118.9381 335° Northwest 421 484 40,000  Level Los Angeles Center
Fri 09:36:21 AM 35.5164 -118.9992 335° Northwest 419 482 40,000  Level Los Angeles Center
Fri 09:37:22 AM 35.6200 -119.0611 334° Northwest 416 479 40,000  Level Los Angeles Center
Fri 09:38:08 AM 35.6978 -119.1172 330° Northwest 417 480 40,000  Level Oakland Center
Fri 09:39:09 AM 35.7978 -119.1869 331° Northwest 415 478 40,000  Level Oakland Center
Fri 09:40:10 AM 35.8972 -119.2556 331° Northwest 414 476 40,000  Level Oakland Center
Fri 09:41:10 AM 35.9969 -119.3256 330° Northwest 413 475 40,000  Level Oakland Center
Fri 09:42:11 AM 36.0975 -119.3953 331° Northwest 416 479 40,000  Level Oakland Center
Fri 09:43:12 AM 36.1961 -119.4656 330° Northwest 411 473 40,000  Level Oakland Center
Fri 09:44:13 AM 36.2958 -119.5369 330° Northwest 414 476 40,000  Level Oakland Center
Fri 09:45:14 AM 36.4164 -119.6208 331° Northwest 415 478 40,000 -246 Level Oakland Center
Fri 09:46:15 AM 36.5153 -119.6925 330° Northwest 413 475 39,500 -738 Descending Oakland Center
Fri 09:47:16 AM 36.6131 -119.7642 330° Northwest 410 472 38,500 -738 Descending Oakland Center
Fri 09:48:17 AM 36.7139 -119.8378 330° Northwest 419 482 38,000 -244 Descending Oakland Center
Fri 09:49:19 AM 36.8133 -119.9083 330° Northwest 413 475 38,000 -148 Level Oakland Center
Fri 09:50:19 AM 36.9100 -119.9778 330° Northwest 405 466 37,700 -1,686 Descending Oakland Center
Fri 09:51:20 AM 37.0081 -120.0494 330° Northwest 409 471 34,600 -2,951 Descending Oakland Center
Fri 09:52:21 AM 37.1128 -120.1256 330° Northwest 413 475 31,700 -2,656 Descending Oakland Center
Fri 09:53:22 AM 37.2122 -120.1903 333° Northwest 407 468 29,200 -2,361 Descending Oakland Center
Fri 09:54:23 AM 37.3058 -120.2639 328° Northwest 395 455 26,900 -2,262 Descending Oakland Center
Fri 09:55:24 AM 37.4003 -120.3258 332° Northwest 391 450 24,600 -1,851 Descending Oakland Center
Fri 09:55:57 AM 37.4500 -120.3833 317° Northwest 370 426 24,000 -1,212 Descending Northern Cal TRACON
Fri 09:57:03 AM 37.5333 -120.4667 322° Northwest 352 405 22,600 -1,600 Descending Northern Cal TRACON
Fri 09:57:57 AM 37.6000 -120.5333 322° Northwest 351 404 20,800 -1,500 Descending Northern Cal TRACON
Fri 09:58:27 AM 37.6328 -120.5556 332° Northwest 350 403 20,500 -989 Descending Oakland Center
Fri 09:59:28 AM 37.7236 -120.6439 322° Northwest 344 396 19,300 -1,133 Descending Oakland Center
Fri 09:59:57 AM 37.7500 -120.6833 310° West 339 390 18,800 -1,011 Descending Northern Cal TRACON
Fri 10:00:57 AM 37.8333 -120.7500 328° Northwest 334 384 17,800 -947 Descending Northern Cal TRACON
Fri 10:01:51 AM 37.9000 -120.8167 322° Northwest 329 379 17,000 -894 Descending Northern Cal TRACON
Fri 10:02:31 AM 37.9369 -120.8633 315° West 324 373 16,400 -1,129 Descending Oakland Center
Fri 10:03:32 AM 37.9972 -120.9469 312° West 322 371 15,100 -1,426 Descending Oakland Center
Fri 10:04:33 AM 38.0583 -121.0289 313° West 320 368 13,500 -1,574 Descending Oakland Center
Fri 10:05:34 AM 38.1183 -121.1086 314° West 313 360 11,900 -1,692 Descending Oakland Center
Fri 10:05:51 AM 38.1333 -121.1333 308° West 311 358 11,300 -1,229 Descending Northern Cal TRACON
Fri 10:06:57 AM 38.2000 -121.2333 310° West 308 354 10,200 -1,100 Descending Northern Cal TRACON
Fri 10:07:51 AM 38.2500 -121.3000 314° West 298 343 9,100 -1,278 Descending Northern Cal TRACON
Fri 10:08:45 AM 38.3000 -121.3667 314° West 295 339 7,900 -1,500 Descending Northern Cal TRACON
Fri 10:09:51 AM 38.3667 -121.4500 316° Northwest 282 325 6,100 -1,450 Descending Northern Cal TRACON
Fri 10:10:45 AM 38.4000 -121.5167 303° West 273 314 5,000 -632 Descending Northern Cal TRACON
Fri 10:11:45 AM 38.4167 -121.6000 284° West 243 280 4,900 -365 Descending Northern Cal TRACON
Fri 10:12:40 AM 38.4667 -121.6000 360° North 226 260 4,300 -1,105 Descending Northern Cal TRACON
Fri 10:13:39 AM 38.5333 -121.5833 11° North 216 249 2,800 -1,109 Descending Northern Cal TRACON
Fri 10:14:39 AM 38.5833 -121.5833 360° North 158 182 2,100 -750 Descending Northern Cal TRACON
Fri 10:15:39 AM 38.6167 -121.5833 360° North 141 162 1,300 -800 Descending Northern Cal TRACON
Fri 10:16:39 AM 38.6667 -121.5833 360° North 132 152 500 -800 Descending Northern Cal TRACON
Fri 10:19:00 AM 38.6833 -121.5833 180° South  Level FlightAware Approximate
Fri 10:26:00 AM 38.6954 -121.5908 180° South  Level Estimated

Login

Don't have an account? Register now (free) for customized features, flight alerts, and more!